createdAt,value
2017-09-19T00:00:16.603Z,990.3
2017-09-19T00:01:17.503Z,990.3
2017-09-19T00:02:18.156Z,990.2
2017-09-19T00:03:18.811Z,990.3
2017-09-19T00:04:19.494Z,990.3
2017-09-19T00:05:20.145Z,990.3
2017-09-19T00:06:21.048Z,990.2
2017-09-19T00:07:21.697Z,990.2
2017-09-19T00:08:22.349Z,990.2
2017-09-19T00:09:23.005Z,990.2
2017-09-19T00:10:23.656Z,990.2
2017-09-19T00:11:24.557Z,990.3
2017-09-19T00:12:25.209Z,990.3
2017-09-19T00:13:25.859Z,990.3
2017-09-19T00:14:26.511Z,990.3
2017-09-19T00:15:27.162Z,990.3
2017-09-19T00:16:28.063Z,990.3
2017-09-19T00:17:28.715Z,990.2
2017-09-19T00:18:29.366Z,990.2
2017-09-19T00:19:30.016Z,990.2
2017-09-19T00:20:30.667Z,990.2
2017-09-19T00:21:31.569Z,990.3
2017-09-19T00:22:32.220Z,990.2
2017-09-19T00:23:32.871Z,990.2
2017-09-19T00:24:33.524Z,990.2
2017-09-19T00:25:34.173Z,990.2
2017-09-19T00:26:35.126Z,990.2
2017-09-19T00:27:35.776Z,990.2
2017-09-19T00:28:36.426Z,990.3
2017-09-19T00:29:37.078Z,990.2
2017-09-19T00:30:37.729Z,990.2
2017-09-19T00:31:38.630Z,990.2
2017-09-19T00:32:39.285Z,990.1
2017-09-19T00:33:39.943Z,990.1
2017-09-19T00:34:40.594Z,990.1
2017-09-19T00:35:41.248Z,990.1
2017-09-19T00:36:42.147Z,990.1
2017-09-19T00:37:42.799Z,990.1
2017-09-19T00:38:43.452Z,990.1
2017-09-19T00:39:44.104Z,990.1
2017-09-19T00:40:44.757Z,990.1
2017-09-19T00:41:45.657Z,990.0
2017-09-19T00:42:46.307Z,990.1
2017-09-19T00:43:46.966Z,990.1
2017-09-19T00:44:47.612Z,990.1
2017-09-19T00:45:48.264Z,990.1
2017-09-19T00:46:49.169Z,990.1
2017-09-19T00:47:49.822Z,990.1
2017-09-19T00:48:50.472Z,990.1
2017-09-19T00:49:51.125Z,990.2
2017-09-19T00:50:51.778Z,990.1
2017-09-19T00:51:52.680Z,990.1
2017-09-19T00:52:53.335Z,990.1
2017-09-19T00:53:53.987Z,990.0
2017-09-19T00:54:54.673Z,990.1
2017-09-19T00:55:55.326Z,990.1
2017-09-19T00:56:56.228Z,990.1
2017-09-19T00:57:56.880Z,990.1
2017-09-19T00:58:57.533Z,990.0
2017-09-19T00:59:58.186Z,990.1
2017-09-19T01:00:58.839Z,990.0
2017-09-19T01:01:59.740Z,990.1
2017-09-19T01:03:00.393Z,990.1
2017-09-19T01:04:01.045Z,990.1
2017-09-19T01:05:01.697Z,990.0
2017-09-19T01:06:02.349Z,990.1
2017-09-19T01:07:03.252Z,990.1
2017-09-19T01:08:03.906Z,990.1
2017-09-19T01:09:04.558Z,990.1
2017-09-19T01:10:05.217Z,990.1
2017-09-19T01:11:05.900Z,990.0
2017-09-19T01:12:06.802Z,990.1
2017-09-19T01:13:07.456Z,990.0
2017-09-19T01:14:08.109Z,990.1
2017-09-19T01:15:08.760Z,990.0
2017-09-19T01:16:09.413Z,990.1
2017-09-19T01:17:10.354Z,990.1
2017-09-19T01:18:11.044Z,990.1
2017-09-19T01:19:11.731Z,990.1
2017-09-19T01:20:12.384Z,990.0
2017-09-19T01:21:13.038Z,990.0
2017-09-19T01:22:13.939Z,990.1
2017-09-19T01:23:14.591Z,990.1
2017-09-19T01:24:15.247Z,990.1
2017-09-19T01:25:15.898Z,990.1
2017-09-19T01:26:16.552Z,990.1
2017-09-19T01:27:17.455Z,990.1
2017-09-19T01:28:18.107Z,990.1
2017-09-19T01:29:18.763Z,990.1
2017-09-19T01:30:19.447Z,990.1
2017-09-19T01:31:20.104Z,990.1
2017-09-19T01:32:21.090Z,990.1
2017-09-19T01:33:21.741Z,990.1
2017-09-19T01:34:22.395Z,990.1
2017-09-19T01:35:23.047Z,990.1
2017-09-19T01:36:23.700Z,990.1
2017-09-19T01:37:24.607Z,990.1
2017-09-19T01:38:25.288Z,990.1
2017-09-19T01:39:25.940Z,990.0
2017-09-19T01:40:26.595Z,990.2
2017-09-19T01:41:27.249Z,990.1
2017-09-19T01:42:28.184Z,990.1
2017-09-19T01:43:28.835Z,990.1
2017-09-19T01:44:29.489Z,990.1
2017-09-19T01:45:30.141Z,990.1
2017-09-19T01:46:30.796Z,990.1
2017-09-19T01:47:31.698Z,990.1
2017-09-19T01:48:32.350Z,990.1
2017-09-19T01:49:33.004Z,990.1
2017-09-19T01:50:33.654Z,990.1
2017-09-19T01:51:34.306Z,990.1
2017-09-19T01:52:35.210Z,990.1
2017-09-19T01:53:35.863Z,990.1
2017-09-19T01:54:36.514Z,990.1
2017-09-19T01:55:37.169Z,990.0
2017-09-19T01:56:37.821Z,990.1
2017-09-19T01:57:38.724Z,990.1
2017-09-19T01:58:39.377Z,990.1
2017-09-19T01:59:40.029Z,990.1
2017-09-19T02:00:40.684Z,990.1
2017-09-19T02:01:41.372Z,990.0
2017-09-19T02:02:42.326Z,990.1
2017-09-19T02:03:42.979Z,990.1
2017-09-19T02:04:43.632Z,990.1
2017-09-19T02:05:44.285Z,990.0
2017-09-19T02:06:44.939Z,990.1
2017-09-19T02:07:45.891Z,990.1
2017-09-19T02:08:46.545Z,990.1
2017-09-19T02:09:47.197Z,990.1
2017-09-19T02:10:47.850Z,990.1
2017-09-19T02:11:48.504Z,990.1
2017-09-19T02:12:49.411Z,990.1
2017-09-19T02:13:50.065Z,990.2
2017-09-19T02:14:50.715Z,990.2
2017-09-19T02:15:51.368Z,990.2
2017-09-19T02:16:52.071Z,990.2
2017-09-19T02:17:53.025Z,990.1
2017-09-19T02:18:53.677Z,990.2
2017-09-19T02:19:54.333Z,990.2
2017-09-19T02:20:54.981Z,990.2
2017-09-19T02:21:55.637Z,990.2
2017-09-19T02:22:56.545Z,990.2
2017-09-19T02:23:57.230Z,990.2
2017-09-19T02:24:57.883Z,990.2
2017-09-19T02:25:58.537Z,990.2
2017-09-19T02:26:59.190Z,990.2
2017-09-19T02:28:00.093Z,990.2
2017-09-19T02:29:00.745Z,990.2
2017-09-19T02:30:01.398Z,990.2
2017-09-19T02:31:02.050Z,990.2
2017-09-19T02:32:02.705Z,990.2
2017-09-19T02:33:03.607Z,990.2
2017-09-19T02:34:04.261Z,990.2
2017-09-19T02:35:04.915Z,990.2
2017-09-19T02:36:05.571Z,990.2
2017-09-19T02:37:06.221Z,990.2
2017-09-19T02:38:07.125Z,990.2
2017-09-19T02:39:07.777Z,990.2
2017-09-19T02:40:08.430Z,990.1
2017-09-19T02:41:09.086Z,990.2
2017-09-19T02:42:09.737Z,990.1
2017-09-19T02:43:10.690Z,990.1
2017-09-19T02:44:11.346Z,990.1
2017-09-19T02:45:12.031Z,990.1
2017-09-19T02:46:12.685Z,990.1
2017-09-19T02:47:13.339Z,990.1
2017-09-19T02:48:14.275Z,990.1
2017-09-19T02:49:14.928Z,990.1
2017-09-19T02:50:15.582Z,990.1
2017-09-19T02:51:16.234Z,990.1
2017-09-19T02:52:16.889Z,990.2
2017-09-19T02:53:17.792Z,990.1
2017-09-19T02:54:18.444Z,990.1
2017-09-19T02:55:19.097Z,990.1
2017-09-19T02:56:19.759Z,990.1
2017-09-19T02:57:20.404Z,990.1
2017-09-19T02:58:21.308Z,990.1
2017-09-19T02:59:21.962Z,990.1
2017-09-19T03:00:22.615Z,990.1
2017-09-19T03:01:23.268Z,990.1
2017-09-19T03:02:23.921Z,990.1
2017-09-19T03:03:24.874Z,990.1
2017-09-19T03:04:25.526Z,990.0
2017-09-19T03:05:26.177Z,990.0
2017-09-19T03:06:26.831Z,990.1
2017-09-19T03:07:27.484Z,990.0
2017-09-19T03:08:28.387Z,990.1
2017-09-19T03:09:29.042Z,990.1
2017-09-19T03:10:29.695Z,990.0
2017-09-19T03:11:30.350Z,990.1
2017-09-19T03:12:31.004Z,990.0
2017-09-19T03:13:31.913Z,990.0
2017-09-19T03:14:32.601Z,990.0
2017-09-19T03:15:33.253Z,990.0
2017-09-19T03:16:33.910Z,990.0
2017-09-19T03:17:34.596Z,990.0
2017-09-19T03:18:35.501Z,990.0
2017-09-19T03:19:36.154Z,990.0
2017-09-19T03:20:36.807Z,990.0
2017-09-19T03:21:37.462Z,990.0
2017-09-19T03:22:38.114Z,990.0
2017-09-19T03:23:39.067Z,989.9
2017-09-19T03:24:39.721Z,989.9
2017-09-19T03:25:40.386Z,989.9
2017-09-19T03:26:41.042Z,989.9
2017-09-19T03:27:41.694Z,989.9
2017-09-19T03:28:42.598Z,989.9
2017-09-19T03:29:43.251Z,989.9
2017-09-19T03:30:43.906Z,989.9
2017-09-19T03:31:44.559Z,989.9
2017-09-19T03:32:45.213Z,989.9
2017-09-19T03:33:46.119Z,989.9
2017-09-19T03:34:46.773Z,989.9
2017-09-19T03:35:47.425Z,989.9
2017-09-19T03:36:48.115Z,989.8
2017-09-19T03:37:48.768Z,989.8
2017-09-19T03:38:49.721Z,989.8
2017-09-19T03:39:50.374Z,989.9
2017-09-19T03:40:51.028Z,989.9
2017-09-19T03:41:51.680Z,989.9
2017-09-19T03:42:52.335Z,989.8
2017-09-19T03:43:53.238Z,989.8
2017-09-19T03:44:53.891Z,989.8
2017-09-19T03:45:54.543Z,989.8
2017-09-19T03:46:55.197Z,989.8
2017-09-19T03:47:55.853Z,989.8
2017-09-19T03:48:56.789Z,989.8
2017-09-19T03:49:57.441Z,989.8
2017-09-19T03:50:58.095Z,989.8
2017-09-19T03:51:58.749Z,989.8
2017-09-19T03:52:59.406Z,989.8
2017-09-19T03:54:00.304Z,989.8
2017-09-19T03:55:00.958Z,989.8
2017-09-19T03:56:01.611Z,989.8
2017-09-19T03:57:02.265Z,989.8
2017-09-19T03:58:02.916Z,989.8
2017-09-19T03:59:03.820Z,989.8
2017-09-19T04:00:04.482Z,989.9
2017-09-19T04:01:05.135Z,989.9
2017-09-19T04:02:05.789Z,989.9
2017-09-19T04:03:06.441Z,989.9
2017-09-19T04:04:07.343Z,989.9
2017-09-19T04:05:07.997Z,989.9
2017-09-19T04:06:08.650Z,989.9
2017-09-19T04:07:09.303Z,989.9
2017-09-19T04:08:09.955Z,989.9
2017-09-19T04:09:10.909Z,989.9
2017-09-19T04:10:11.560Z,989.9
2017-09-19T04:11:12.220Z,989.9
2017-09-19T04:12:12.872Z,989.8
2017-09-19T04:13:13.525Z,989.8
2017-09-19T04:14:14.429Z,989.8
2017-09-19T04:15:15.081Z,989.8
2017-09-19T04:16:15.736Z,989.8
2017-09-19T04:17:16.437Z,989.8
2017-09-19T04:18:17.089Z,989.8
2017-09-19T04:19:18.005Z,989.9
2017-09-19T04:20:18.645Z,989.8
2017-09-19T04:21:19.299Z,989.8
2017-09-19T04:22:19.951Z,989.8
2017-09-19T04:23:20.605Z,989.9
2017-09-19T04:24:21.508Z,989.9
2017-09-19T04:25:22.197Z,989.9
2017-09-19T04:26:22.849Z,989.8
2017-09-19T04:27:23.502Z,989.9
2017-09-19T04:28:24.154Z,989.9
2017-09-19T04:29:25.059Z,989.8
2017-09-19T04:30:25.713Z,989.9
2017-09-19T04:31:26.366Z,989.9
2017-09-19T04:32:27.020Z,989.9
2017-09-19T04:33:27.673Z,989.9
2017-09-19T04:34:28.576Z,989.9
2017-09-19T04:35:29.231Z,989.9
2017-09-19T04:36:29.883Z,989.8
2017-09-19T04:37:30.537Z,989.8
2017-09-19T04:38:31.195Z,989.8
2017-09-19T04:39:32.109Z,989.8
2017-09-19T04:40:32.762Z,989.7
2017-09-19T04:41:33.417Z,989.7
2017-09-19T04:42:34.070Z,989.8
2017-09-19T04:43:34.726Z,989.8
2017-09-19T04:44:35.630Z,989.7
2017-09-19T04:45:36.285Z,989.8
2017-09-19T04:46:36.942Z,989.7
2017-09-19T04:47:37.596Z,989.8
2017-09-19T04:48:38.250Z,989.7
2017-09-19T04:49:39.156Z,989.8
2017-09-19T04:50:39.809Z,989.8
2017-09-19T04:51:40.465Z,989.8
2017-09-19T04:52:41.119Z,989.8
2017-09-19T04:53:41.774Z,989.8
2017-09-19T04:54:42.731Z,989.8
2017-09-19T04:55:43.386Z,989.8
2017-09-19T04:56:44.051Z,989.8
2017-09-19T04:57:44.708Z,989.9
2017-09-19T04:58:45.361Z,989.9
2017-09-19T04:59:46.269Z,989.9
2017-09-19T05:00:46.924Z,989.9
2017-09-19T05:01:47.580Z,989.9
2017-09-19T05:02:48.235Z,989.9
2017-09-19T05:03:48.892Z,989.9
2017-09-19T05:04:49.796Z,990.0
2017-09-19T05:05:50.451Z,990.0
2017-09-19T05:06:51.106Z,990.0
2017-09-19T05:07:51.769Z,990.1
2017-09-19T05:08:52.424Z,990.1
2017-09-19T05:09:53.329Z,990.1
2017-09-19T05:10:53.984Z,990.1
2017-09-19T05:11:54.641Z,990.1
2017-09-19T05:12:55.297Z,990.1
2017-09-19T05:13:55.955Z,990.1
2017-09-19T05:14:56.861Z,990.1
2017-09-19T05:15:57.519Z,990.2
2017-09-19T05:16:58.175Z,990.1
2017-09-19T05:17:58.832Z,990.1
2017-09-19T05:18:59.488Z,990.1
2017-09-19T05:20:00.396Z,990.2
2017-09-19T05:21:01.051Z,990.1
2017-09-19T05:22:01.706Z,990.1
2017-09-19T05:23:02.364Z,990.1
2017-09-19T05:24:03.021Z,990.1
2017-09-19T05:25:03.932Z,990.1
2017-09-19T05:26:04.590Z,990.1
2017-09-19T05:27:05.248Z,990.1
2017-09-19T05:28:05.907Z,990.1
2017-09-19T05:29:06.563Z,990.1
2017-09-19T05:30:07.472Z,990.1
2017-09-19T05:31:08.129Z,990.2
2017-09-19T05:32:08.787Z,990.2
2017-09-19T05:33:09.444Z,990.2
2017-09-19T05:34:10.101Z,990.2
2017-09-19T05:35:11.095Z,990.2
2017-09-19T05:36:11.756Z,990.1
2017-09-19T05:37:12.443Z,990.2
2017-09-19T05:38:13.137Z,990.2
2017-09-19T05:39:13.792Z,990.2
2017-09-19T05:40:14.702Z,990.2
2017-09-19T05:41:15.394Z,990.2
2017-09-19T05:42:16.050Z,990.2
2017-09-19T05:43:16.740Z,990.2
2017-09-19T05:44:17.396Z,990.2
2017-09-19T05:45:18.311Z,990.3
2017-09-19T05:46:18.967Z,990.3
2017-09-19T05:47:19.623Z,990.3
2017-09-19T05:48:20.278Z,990.2
2017-09-19T05:49:20.935Z,990.3
2017-09-19T05:50:21.843Z,990.3
2017-09-19T05:51:22.498Z,990.3
2017-09-19T05:52:23.154Z,990.4
2017-09-19T05:53:23.810Z,990.3
2017-09-19T05:54:24.468Z,990.3
2017-09-19T05:55:25.373Z,990.4
2017-09-19T05:56:26.029Z,990.4
2017-09-19T05:57:26.685Z,990.4
2017-09-19T05:58:27.343Z,990.4
2017-09-19T05:59:27.998Z,990.4
2017-09-19T06:00:28.905Z,990.4
2017-09-19T06:01:29.559Z,990.4
2017-09-19T06:02:30.252Z,990.4
2017-09-19T06:03:30.942Z,990.4
2017-09-19T06:04:31.597Z,990.4
2017-09-19T06:05:32.556Z,990.4
2017-09-19T06:06:33.213Z,990.5
2017-09-19T06:07:33.870Z,990.5
2017-09-19T06:08:34.527Z,990.5
2017-09-19T06:09:35.181Z,990.5
2017-09-19T06:10:36.138Z,990.5
2017-09-19T06:11:36.802Z,990.5
2017-09-19T06:12:37.454Z,990.5
2017-09-19T06:13:38.110Z,990.5
2017-09-19T06:14:38.765Z,990.5
2017-09-19T06:15:39.722Z,990.6
2017-09-19T06:16:40.379Z,990.5
2017-09-19T06:17:41.035Z,990.6
2017-09-19T06:18:41.691Z,990.6
2017-09-19T06:19:42.347Z,990.6
2017-09-19T06:20:43.254Z,990.6
2017-09-19T06:21:43.910Z,990.6
2017-09-19T06:22:44.566Z,990.6
2017-09-19T06:23:45.223Z,990.6
2017-09-19T06:24:45.878Z,990.6
2017-09-19T06:25:46.821Z,990.6
2017-09-19T06:26:47.478Z,990.6
2017-09-19T06:27:48.134Z,990.6
2017-09-19T06:28:48.790Z,990.7
2017-09-19T06:29:49.444Z,990.6
2017-09-19T06:30:50.352Z,990.7
2017-09-19T06:31:51.007Z,990.6
2017-09-19T06:32:51.664Z,990.6
2017-09-19T06:33:52.321Z,990.6
2017-09-19T06:34:52.977Z,990.6
2017-09-19T06:35:53.886Z,990.6
2017-09-19T06:36:54.543Z,990.6
2017-09-19T06:37:55.205Z,990.6
2017-09-19T06:38:55.864Z,990.7
2017-09-19T06:39:56.514Z,990.6
2017-09-19T06:40:57.472Z,990.7
2017-09-19T06:41:58.130Z,990.6
2017-09-19T06:42:58.798Z,990.6
2017-09-19T06:43:59.447Z,990.6
2017-09-19T06:45:00.104Z,990.6
2017-09-19T06:46:01.012Z,990.6
2017-09-19T06:47:01.669Z,990.6
2017-09-19T06:48:02.329Z,990.6
2017-09-19T06:49:02.982Z,990.6
2017-09-19T06:50:03.638Z,990.6
2017-09-19T06:51:04.600Z,990.6
2017-09-19T06:52:05.291Z,990.6
2017-09-19T06:53:05.951Z,990.6
2017-09-19T06:54:06.609Z,990.6
2017-09-19T06:55:07.265Z,990.7
2017-09-19T06:56:08.176Z,990.7
2017-09-19T06:57:08.873Z,990.7
2017-09-19T06:58:09.567Z,990.6
2017-09-19T06:59:10.225Z,990.7
2017-09-19T07:00:10.884Z,990.7
2017-09-19T07:01:11.791Z,990.7
2017-09-19T07:02:12.486Z,990.7
2017-09-19T07:03:13.145Z,990.7
2017-09-19T07:04:13.806Z,990.8
2017-09-19T07:05:14.463Z,990.7
2017-09-19T07:06:15.373Z,990.8
2017-09-19T07:07:16.032Z,990.8
2017-09-19T07:08:16.725Z,990.8
2017-09-19T07:09:17.420Z,990.8
2017-09-19T07:10:18.081Z,990.8
2017-09-19T07:11:18.991Z,990.8
2017-09-19T07:12:19.649Z,990.8
2017-09-19T07:13:20.321Z,990.8
2017-09-19T07:14:20.979Z,990.8
2017-09-19T07:15:21.638Z,990.8
2017-09-19T07:16:22.560Z,990.8
2017-09-19T07:17:23.212Z,990.8
2017-09-19T07:18:23.871Z,990.9
2017-09-19T07:19:24.533Z,990.9
2017-09-19T07:20:25.188Z,990.9
2017-09-19T07:21:26.148Z,990.9
2017-09-19T07:22:26.806Z,990.9
2017-09-19T07:23:27.468Z,990.9
2017-09-19T07:24:28.129Z,990.9
2017-09-19T07:25:28.788Z,990.9
2017-09-19T07:26:29.697Z,991.0
2017-09-19T07:27:30.355Z,991.0
2017-09-19T07:28:31.016Z,990.9
2017-09-19T07:29:31.677Z,991.0
2017-09-19T07:30:32.370Z,991.0
2017-09-19T07:31:33.285Z,991.0
2017-09-19T07:32:33.943Z,991.0
2017-09-19T07:33:34.640Z,991.0
2017-09-19T07:34:35.299Z,991.0
2017-09-19T07:35:35.959Z,991.1
2017-09-19T07:36:36.868Z,991.0
2017-09-19T07:37:37.527Z,991.0
2017-09-19T07:38:38.189Z,991.0
2017-09-19T07:39:38.849Z,991.0
2017-09-19T07:40:39.507Z,991.1
2017-09-19T07:41:40.418Z,991.1
2017-09-19T07:42:41.078Z,991.1
2017-09-19T07:43:41.740Z,991.1
2017-09-19T07:44:42.402Z,991.1
2017-09-19T07:45:43.060Z,991.1
2017-09-19T07:46:43.969Z,991.1
2017-09-19T07:47:44.630Z,991.1
2017-09-19T07:48:45.289Z,991.1
2017-09-19T07:49:45.952Z,991.1
2017-09-19T07:50:46.613Z,991.0
2017-09-19T07:51:47.568Z,991.0
2017-09-19T07:52:48.211Z,991.0
2017-09-19T07:53:48.871Z,991.1
2017-09-19T07:54:49.531Z,991.1
2017-09-19T07:55:50.191Z,991.1
2017-09-19T07:56:51.113Z,991.1
2017-09-19T07:57:51.774Z,991.1
2017-09-19T07:58:52.433Z,991.0
2017-09-19T07:59:53.092Z,991.1
2017-09-19T08:00:53.754Z,991.1
2017-09-19T08:01:54.715Z,991.1
2017-09-19T08:02:55.411Z,991.1
2017-09-19T08:03:56.072Z,991.1
2017-09-19T08:04:56.732Z,991.1
2017-09-19T08:05:57.395Z,991.1
2017-09-19T08:06:58.308Z,991.1
2017-09-19T08:07:58.969Z,991.1
2017-09-19T08:08:59.703Z,991.1
2017-09-19T08:10:00.362Z,991.2
2017-09-19T08:11:01.025Z,991.1
2017-09-19T08:12:01.987Z,991.1
2017-09-19T08:13:02.648Z,991.1
2017-09-19T08:14:03.311Z,991.1
2017-09-19T08:15:03.975Z,991.1
2017-09-19T08:16:04.638Z,991.1
2017-09-19T08:17:05.550Z,991.1
2017-09-19T08:18:06.214Z,991.1
2017-09-19T08:19:06.876Z,991.1
2017-09-19T08:20:07.537Z,991.1
2017-09-19T08:21:08.200Z,991.1
2017-09-19T08:22:09.113Z,991.1
2017-09-19T08:23:09.776Z,991.1
2017-09-19T08:24:10.440Z,991.2
2017-09-19T08:25:11.102Z,991.2
2017-09-19T08:26:11.767Z,991.2
2017-09-19T08:27:12.713Z,991.2
2017-09-19T08:28:13.378Z,991.2
2017-09-19T08:29:14.044Z,991.2
2017-09-19T08:30:14.708Z,991.2
2017-09-19T08:31:15.375Z,991.2
2017-09-19T08:32:16.315Z,991.2
2017-09-19T08:33:16.986Z,991.2
2017-09-19T08:34:17.650Z,991.2
2017-09-19T08:35:18.315Z,991.2
2017-09-19T08:36:18.977Z,991.3
2017-09-19T08:37:19.892Z,991.4
2017-09-19T08:38:20.558Z,991.5
2017-09-19T08:39:21.222Z,991.6
2017-09-19T08:40:21.885Z,991.6
2017-09-19T08:41:22.550Z,991.6
2017-09-19T08:42:23.518Z,991.7
2017-09-19T08:43:24.184Z,991.7
2017-09-19T08:44:24.847Z,991.7
2017-09-19T08:45:25.513Z,991.7
2017-09-19T08:46:26.178Z,991.8
2017-09-19T08:47:27.094Z,991.8
2017-09-19T08:48:27.759Z,991.8
2017-09-19T08:49:28.427Z,991.8
2017-09-19T08:50:29.093Z,991.8
2017-09-19T08:51:29.758Z,991.8
2017-09-19T08:52:30.673Z,991.7
2017-09-19T08:53:31.338Z,991.7
2017-09-19T08:54:32.002Z,991.7
2017-09-19T08:55:32.669Z,991.7
2017-09-19T08:56:33.337Z,991.7
2017-09-19T08:57:34.251Z,991.8
2017-09-19T08:58:34.916Z,991.8
2017-09-19T08:59:35.581Z,991.8
2017-09-19T09:00:36.247Z,991.8
2017-09-19T09:01:36.913Z,991.8
2017-09-19T09:02:37.836Z,991.8
2017-09-19T09:03:38.498Z,991.9
2017-09-19T09:04:39.165Z,991.9
2017-09-19T09:05:39.829Z,991.8
2017-09-19T09:06:40.496Z,991.8
2017-09-19T09:07:41.449Z,991.8
2017-09-19T09:08:42.115Z,991.8
2017-09-19T09:09:42.782Z,991.8
2017-09-19T09:10:43.449Z,991.8
2017-09-19T09:11:44.117Z,991.9
2017-09-19T09:12:45.034Z,992.0
2017-09-19T09:13:45.701Z,991.9
2017-09-19T09:14:46.371Z,992.0
2017-09-19T09:15:47.039Z,991.9
2017-09-19T09:16:47.704Z,992.0
2017-09-19T09:17:48.622Z,991.9
2017-09-19T09:18:49.288Z,991.8
2017-09-19T09:19:49.954Z,991.7
2017-09-19T09:20:50.623Z,992.0
2017-09-19T09:21:51.292Z,991.8
2017-09-19T09:22:52.211Z,991.2
2017-09-19T09:23:52.877Z,991.8
2017-09-19T09:24:53.544Z,991.7
2017-09-19T09:25:54.213Z,991.8
2017-09-19T09:26:54.880Z,991.7
2017-09-19T09:27:55.799Z,991.8
2017-09-19T09:28:56.464Z,991.9
2017-09-19T09:29:57.130Z,992.1
2017-09-19T09:30:57.833Z,992.0
2017-09-19T09:31:58.501Z,991.9
2017-09-19T09:32:59.420Z,992.0
2017-09-19T09:34:00.109Z,991.8
2017-09-19T09:35:00.775Z,991.7
2017-09-19T09:36:01.443Z,991.7
2017-09-19T09:37:02.112Z,991.6
2017-09-19T09:38:03.031Z,991.8
2017-09-19T09:39:03.698Z,991.7
2017-09-19T09:40:04.366Z,991.8
2017-09-19T09:41:05.068Z,991.3
2017-09-19T09:42:05.738Z,991.2
2017-09-19T09:43:06.657Z,991.3
2017-09-19T09:44:07.325Z,991.5
2017-09-19T09:45:07.994Z,991.8
2017-09-19T09:46:08.665Z,991.6
2017-09-19T09:47:09.365Z,991.2
2017-09-19T09:48:10.284Z,991.1
2017-09-19T09:49:10.950Z,991.1
2017-09-19T09:50:11.617Z,991.1
2017-09-19T09:51:12.285Z,991.2
2017-09-19T09:52:12.985Z,991.1
2017-09-19T09:53:13.903Z,991.1
2017-09-19T09:54:14.569Z,991.2
2017-09-19T09:55:15.237Z,991.3
2017-09-19T09:56:15.906Z,991.7
2017-09-19T09:57:16.576Z,991.8
2017-09-19T09:58:17.494Z,991.6
2017-09-19T09:59:18.161Z,991.1
2017-09-19T10:00:18.830Z,991.1
2017-09-19T10:01:19.496Z,991.1
2017-09-19T10:02:20.163Z,991.1
2017-09-19T10:03:21.130Z,991.0
2017-09-19T10:04:21.797Z,991.1
2017-09-19T10:05:22.464Z,991.1
2017-09-19T10:06:23.130Z,991.2
2017-09-19T10:07:23.834Z,991.1
2017-09-19T10:08:24.802Z,991.2
2017-09-19T10:09:25.504Z,991.5
2017-09-19T10:10:26.174Z,991.6
2017-09-19T10:11:26.842Z,991.6
2017-09-19T10:12:27.509Z,991.1
2017-09-19T10:13:28.426Z,991.0
2017-09-19T10:14:29.093Z,991.0
2017-09-19T10:15:29.761Z,991.0
2017-09-19T10:16:30.426Z,991.2
2017-09-19T10:17:31.091Z,991.1
2017-09-19T10:18:32.009Z,991.1
2017-09-19T10:19:32.677Z,991.5
2017-09-19T10:20:33.346Z,991.6
2017-09-19T10:21:34.016Z,991.6
2017-09-19T10:22:34.684Z,991.1
2017-09-19T10:23:35.603Z,991.0
2017-09-19T10:24:36.267Z,991.2
2017-09-19T10:25:37.022Z,991.7
2017-09-19T10:26:37.690Z,991.5
2017-09-19T10:27:38.359Z,991.2
2017-09-19T10:28:39.275Z,991.1
2017-09-19T10:29:39.944Z,991.1
2017-09-19T10:30:40.610Z,991.2
2017-09-19T10:31:41.277Z,991.1
2017-09-19T10:32:41.946Z,991.1
2017-09-19T10:33:42.900Z,991.2
2017-09-19T10:34:43.569Z,991.1
2017-09-19T10:35:44.240Z,991.9
2017-09-19T10:36:44.918Z,991.8
2017-09-19T10:37:45.586Z,991.2
2017-09-19T10:38:46.553Z,991.2
2017-09-19T10:39:47.257Z,991.7
2017-09-19T10:40:47.924Z,992.0
2017-09-19T10:41:48.593Z,992.1
2017-09-19T10:42:49.268Z,992.1
2017-09-19T10:43:50.236Z,992.1
2017-09-19T10:44:50.907Z,992.1
2017-09-19T10:45:51.577Z,992.2
2017-09-19T10:46:52.247Z,992.2
2017-09-19T10:47:52.916Z,992.2
2017-09-19T10:48:53.836Z,991.4
2017-09-19T10:49:54.503Z,991.5
2017-09-19T10:50:55.170Z,991.3
2017-09-19T10:51:55.873Z,991.4
2017-09-19T10:52:56.542Z,991.4
2017-09-19T10:53:57.464Z,991.3
2017-09-19T10:54:58.130Z,991.3
2017-09-19T10:55:58.800Z,991.4
2017-09-19T10:56:59.501Z,991.4
2017-09-19T10:58:00.169Z,991.3
2017-09-19T10:59:01.088Z,991.3
2017-09-19T11:00:01.755Z,991.3
2017-09-19T11:01:02.423Z,991.3
2017-09-19T11:02:03.088Z,991.3
2017-09-19T11:03:03.757Z,991.3
2017-09-19T11:04:04.673Z,991.3
2017-09-19T11:05:05.342Z,991.3
2017-09-19T11:06:06.009Z,991.3
2017-09-19T11:07:06.678Z,991.3
2017-09-19T11:08:07.340Z,991.3
2017-09-19T11:09:08.256Z,991.3
2017-09-19T11:10:08.922Z,991.3
2017-09-19T11:11:09.589Z,991.3
2017-09-19T11:12:10.256Z,991.3
2017-09-19T11:13:10.922Z,991.4
2017-09-19T11:14:11.838Z,991.3
2017-09-19T11:15:12.503Z,991.3
2017-09-19T11:16:13.173Z,991.3
2017-09-19T11:17:13.838Z,991.3
2017-09-19T11:18:14.501Z,991.3
2017-09-19T11:19:15.417Z,991.3
2017-09-19T11:20:16.082Z,991.3
2017-09-19T11:21:16.748Z,991.3
2017-09-19T11:22:17.412Z,991.4
2017-09-19T11:23:18.078Z,991.3
2017-09-19T11:24:18.991Z,991.3
2017-09-19T11:25:19.657Z,991.3
2017-09-19T11:26:20.320Z,991.3
2017-09-19T11:27:20.983Z,991.2
2017-09-19T11:28:21.648Z,991.2
2017-09-19T11:29:22.614Z,991.2
2017-09-19T11:30:23.277Z,991.2
2017-09-19T11:31:23.942Z,991.3
2017-09-19T11:32:24.607Z,991.3
2017-09-19T11:33:25.272Z,991.2
2017-09-19T11:34:26.187Z,991.2
2017-09-19T11:35:26.852Z,991.2
2017-09-19T11:36:27.515Z,991.2
2017-09-19T11:37:28.181Z,991.4
2017-09-19T11:38:28.846Z,991.4
2017-09-19T11:39:29.812Z,991.5
2017-09-19T11:40:30.476Z,991.5
2017-09-19T11:41:31.142Z,991.6
2017-09-19T11:42:31.811Z,991.8
2017-09-19T11:43:32.479Z,991.7
2017-09-19T11:44:33.400Z,991.6
2017-09-19T11:45:34.068Z,991.8
2017-09-19T11:46:34.737Z,991.8
2017-09-19T11:47:35.407Z,991.6
2017-09-19T11:48:36.086Z,991.6
2017-09-19T11:49:37.008Z,991.7
2017-09-19T11:50:37.678Z,991.6
2017-09-19T11:51:38.347Z,991.8
2017-09-19T11:52:39.014Z,991.5
2017-09-19T11:53:39.685Z,991.6
2017-09-19T11:54:40.606Z,991.8
2017-09-19T11:55:41.275Z,991.7
2017-09-19T11:56:41.945Z,991.3
2017-09-19T11:57:42.615Z,991.3
2017-09-19T11:58:43.283Z,991.3
2017-09-19T11:59:44.200Z,991.4
2017-09-19T12:00:44.868Z,991.2
2017-09-19T12:01:45.537Z,991.2
2017-09-19T12:02:46.205Z,991.2
2017-09-19T12:03:46.876Z,991.2
2017-09-19T12:04:47.797Z,991.2
2017-09-19T12:05:48.466Z,991.2
2017-09-19T12:06:49.134Z,991.3
2017-09-19T12:07:49.801Z,991.2
2017-09-19T12:08:50.473Z,991.6
2017-09-19T12:09:51.395Z,991.5
2017-09-19T12:10:52.062Z,991.2
2017-09-19T12:11:52.734Z,991.5
2017-09-19T12:12:53.403Z,991.6
2017-09-19T12:13:54.070Z,991.2
2017-09-19T12:14:54.988Z,991.4
2017-09-19T12:15:55.693Z,991.5
2017-09-19T12:16:56.364Z,991.5
2017-09-19T12:17:57.070Z,991.5
2017-09-19T12:18:57.745Z,991.5
2017-09-19T12:19:58.659Z,991.5
2017-09-19T12:20:59.331Z,991.5
2017-09-19T12:22:00.003Z,991.5
2017-09-19T12:23:00.672Z,991.5
2017-09-19T12:24:01.345Z,991.5
2017-09-19T12:25:02.267Z,991.5
2017-09-19T12:26:02.940Z,991.4
2017-09-19T12:27:03.611Z,991.4
2017-09-19T12:28:04.281Z,991.4
2017-09-19T12:29:04.952Z,991.4
2017-09-19T12:30:05.872Z,991.4
2017-09-19T12:31:06.543Z,991.4
2017-09-19T12:32:07.212Z,991.4
2017-09-19T12:33:07.883Z,991.4
2017-09-19T12:34:08.555Z,991.5
2017-09-19T12:35:09.528Z,991.4
2017-09-19T12:36:10.201Z,991.4
2017-09-19T12:37:10.901Z,991.5
2017-09-19T12:38:11.547Z,991.4
2017-09-19T12:39:12.217Z,991.4
2017-09-19T12:40:13.142Z,991.4
2017-09-19T12:41:13.810Z,991.4
2017-09-19T12:42:14.483Z,991.4
2017-09-19T12:43:15.154Z,991.4
2017-09-19T12:44:15.826Z,991.4
2017-09-19T12:45:16.749Z,991.4
2017-09-19T12:46:17.426Z,991.4
2017-09-19T12:47:18.093Z,991.3
2017-09-19T12:48:18.765Z,991.4
2017-09-19T12:49:19.438Z,991.3
2017-09-19T12:50:20.360Z,991.3
2017-09-19T12:51:21.082Z,991.3
2017-09-19T12:52:21.755Z,991.3
2017-09-19T12:53:22.428Z,991.3
2017-09-19T12:54:23.100Z,991.3
2017-09-19T12:55:24.074Z,991.3
2017-09-19T12:56:24.784Z,991.3
2017-09-19T12:57:25.456Z,991.3
2017-09-19T12:58:26.129Z,991.3
2017-09-19T12:59:26.802Z,991.3
2017-09-19T13:00:27.724Z,991.3
2017-09-19T13:01:28.397Z,991.3